Time;durP1;ratioP1;P1;durP2;ratioP2;P2;SDS_P1;SDS_P2;PMS_P1;PMS_P2;Temp;Humidity;BMP_temperature;BMP_pressure;BME280_temperature;BME280_humidity;BME280_pressure;Samples;Min_cycle;Max_cycle;Signal;HPM_P1;HPM_P2
2022/07/04 00:01:36;;;;;;;;;7.00;7.00;;;;;28.77;45.23;98858.69;6211228;28;97410;-59
2022/07/04 00:04:39;;;;;;;;;10.50;9.50;;;;;28.79;45.34;98856.38;6214294;28;96512;-54
2022/07/04 00:07:45;;;;;;;;;9.60;9.60;;;;;28.73;43.22;98853.03;6215282;28;97110;-63
2022/07/04 00:10:49;;;;;;;;;9.00;8.80;;;;;28.66;43.13;98857.47;6213803;28;96666;-63
2022/07/04 00:13:54;;;;;;;;;8.50;8.50;;;;;28.59;43.58;98848.91;6215238;28;96395;-54
2022/07/04 00:16:57;;;;;;;;;11.00;9.40;;;;;28.46;42.50;98841.66;6214895;28;96415;-61
2022/07/04 00:20:01;;;;;;;;;11.40;10.40;;;;;28.24;42.94;98856.72;6213508;28;98460;-62
2022/07/04 00:23:04;;;;;;;;;9.60;8.60;;;;;28.05;42.98;98848.03;6214974;28;96489;-58
2022/07/04 00:26:08;;;;;;;;;10.00;10.00;;;;;27.92;43.48;98847.13;6212440;28;99570;-58
2022/07/04 00:29:12;;;;;;;;;10.00;9.00;;;;;27.81;43.73;98846.72;6214657;28;96427;-60
2022/07/04 00:32:16;;;;;;;;;13.00;12.00;;;;;27.67;43.72;98835.06;6214324;28;96474;-59
2022/07/04 00:35:19;;;;;;;;;13.00;12.00;;;;;27.56;44.21;98837.41;6214561;28;96941;-61
2022/07/04 00:38:23;;;;;;;;;11.00;11.00;;;;;27.44;44.08;98844.78;6213781;28;97028;-59
2022/07/04 00:41:26;;;;;;;;;12.25;12.25;;;;;27.32;44.48;98839.16;6239977;27;96449;-56
2022/07/04 00:44:35;;;;;;;;;12.00;11.60;;;;;27.20;44.67;98842.63;6264406;27;98077;-58
2022/07/04 00:47:38;;;;;;;;;13.00;12.00;;;;;27.14;45.11;98828.16;6264204;27;96435;-60
2022/07/04 00:50:41;;;;;;;;;11.00;10.40;;;;;27.07;44.96;98825.06;6263426;27;96882;-57
2022/07/04 00:53:46;;;;;;;;;10.00;10.00;;;;;27.01;45.17;98831.16;6264549;27;96997;-59
2022/07/04 00:56:49;;;;;;;;;12.00;12.00;;;;;26.91;45.42;98832.31;6264277;27;97502;-56
2022/07/04 00:59:54;;;;;;;;;11.00;11.00;;;;;26.80;45.67;98831.00;6264225;27;96517;-58
2022/07/04 01:02:57;;;;;;;;;13.00;13.00;;;;;26.70;46.00;98846.00;6263367;27;96589;-58
2022/07/04 01:06:01;;;;;;;;;13.00;13.00;;;;;26.61;46.40;98845.22;6264590;27;97160;-57
2022/07/04 01:09:06;;;;;;;;;13.00;12.40;;;;;26.54;46.52;98842.13;6263949;27;97122;-58
2022/07/04 01:12:09;;;;;;;;;12.60;12.00;;;;;26.48;46.48;98843.44;6263118;27;97852;-57
2022/07/04 01:15:14;;;;;;;;;11.00;11.00;;;;;26.42;46.74;98843.94;6264000;27;97482;-56
2022/07/04 01:18:17;;;;;;;;;12.00;12.00;;;;;26.37;46.73;98842.16;6263863;27;97109;-56
2022/07/04 01:21:22;;;;;;;;;14.50;13.00;;;;;26.31;46.74;98843.44;6264039;27;97053;-57
2022/07/04 01:24:26;;;;;;;;;12.00;11.00;;;;;26.26;47.07;98835.31;6262705;27;96753;-56
2022/07/04 01:27:29;;;;;;;;;12.00;11.40;;;;;26.21;46.97;98835.44;6263827;27;96858;-56
2022/07/04 01:30:33;;;;;;;;;12.40;12.00;;;;;26.13;47.07;98828.78;6262466;27;96637;-59
2022/07/04 01:33:36;;;;;;;;;11.00;10.00;;;;;26.08;47.18;98823.44;6263878;27;96887;-57
2022/07/04 01:36:41;;;;;;;;;12.00;11.00;;;;;26.05;47.20;98828.78;6262901;27;96408;-57
2022/07/04 01:39:44;;;;;;;;;11.00;10.00;;;;;25.99;47.39;98828.16;6262648;27;99508;-56
2022/07/04 01:42:48;;;;;;;;;14.00;13.00;;;;;25.96;47.37;98826.00;6262766;27;97423;-57
2022/07/04 01:45:51;;;;;;;;;11.00;11.00;;;;;25.92;47.37;98836.09;6263010;27;96440;-55
2022/07/04 01:48:55;;;;;;;;;11.00;10.40;;;;;25.87;47.57;98834.31;6238289;28;97570;-57
2022/07/04 01:52:01;;;;;;;;;11.00;11.00;;;;;25.82;47.51;98826.16;6254729;27;96394;-57
2022/07/04 01:55:05;;;;;;;;;12.40;11.40;;;;;25.79;47.69;98835.13;6263108;27;97442;-56
2022/07/04 01:58:08;;;;;;;;;11.00;11.00;;;;;25.76;47.73;98830.22;6261043;27;97504;-59
2022/07/04 02:01:30;;;;;;;;;12.60;11.00;;;;;25.73;47.66;98832.81;6237114;27;97462;-56
2022/07/04 02:04:33;;;;;;;;;11.20;11.00;;;;;25.68;47.89;98831.03;6238288;28;96679;-60
2022/07/04 02:07:38;;;;;;;;;12.80;12.00;;;;;25.63;47.83;98833.94;6261772;27;97027;-59
2022/07/04 02:10:42;;;;;;;;;12.60;12.00;;;;;25.59;47.88;98827.44;6262768;27;97044;-60
2022/07/04 02:13:44;;;;;;;;;11.80;11.80;;;;;25.56;47.79;98830.03;6261895;27;97529;-56
2022/07/04 02:16:47;;;;;;;;;12.25;12.25;;;;;25.53;48.11;98838.91;6262606;27;97441;-60
2022/07/04 02:19:50;;;;;;;;;11.00;10.00;;;;;25.49;47.87;98840.69;6263294;27;96543;-60
2022/07/04 02:22:55;;;;;;;;;11.50;11.00;;;;;25.46;48.08;98847.69;6244801;27;96576;-58
2022/07/04 02:26:00;;;;;;;;;15.00;14.60;;;;;25.43;48.09;98845.53;6262404;27;96640;-59
2022/07/04 02:29:03;;;;;;;;;12.00;11.00;;;;;25.42;47.83;98849.44;6261588;27;97746;-57
2022/07/04 02:32:07;;;;;;;;;12.40;11.00;;;;;25.38;47.85;98852.03;6260889;27;97352;-58
2022/07/04 02:35:11;;;;;;;;;12.00;12.00;;;;;25.36;47.90;98850.72;6262644;27;96703;-57
2022/07/04 02:38:16;;;;;;;;;13.00;12.00;;;;;25.33;48.24;98848.59;6262359;27;97606;-60
2022/07/04 02:41:20;;;;;;;;;12.00;11.80;;;;;25.31;48.58;98850.88;6262234;27;96778;-58
2022/07/04 02:44:23;;;;;;;;;14.40;12.80;;;;;25.26;48.65;98854.59;6262552;27;97527;-58
2022/07/04 02:47:27;;;;;;;;;12.00;12.00;;;;;25.18;48.68;98858.09;6261584;27;97447;-59
2022/07/04 02:50:30;;;;;;;;;13.00;13.00;;;;;25.16;48.54;98854.06;6262446;27;96491;-58
2022/07/04 02:53:35;;;;;;;;;11.60;11.00;;;;;25.11;48.59;98851.44;6262256;27;97160;-58
2022/07/04 02:56:38;;;;;;;;;13.00;13.00;;;;;25.10;48.61;98853.38;6261103;27;97515;-57
2022/07/04 02:59:41;;;;;;;;;11.67;11.00;;;;;25.10;48.40;98852.56;6261229;27;96955;-58
2022/07/04 03:02:45;;;;;;;;;13.00;11.40;;;;;25.09;48.19;98856.44;6260327;27;97462;-57
2022/07/04 03:05:48;;;;;;;;;12.00;12.00;;;;;25.09;48.42;98859.19;6262052;27;96999;-58
2022/07/04 03:08:53;;;;;;;;;12.60;11.00;;;;;25.10;48.53;98856.13;6261926;27;97544;-60
2022/07/04 03:11:56;;;;;;;;;15.40;14.00;;;;;25.11;48.55;98854.19;6261897;27;96397;-58
2022/07/04 03:15:00;;;;;;;;;14.00;13.00;;;;;25.11;48.49;98852.25;6265309;27;97436;-57
2022/07/04 03:18:03;;;;;;;;;14.00;13.00;;;;;25.12;48.80;98844.78;6265667;27;96990;-57
2022/07/04 03:21:07;;;;;;;;;14.00;14.00;;;;;25.12;49.22;98851.09;6264610;27;96716;-58
2022/07/04 03:24:16;;;;;;;;;15.20;14.00;;;;;25.13;48.89;98849.97;6247540;27;96841;-58
2022/07/04 03:27:19;;;;;;;;;12.60;12.60;;;;;25.13;49.05;98846.38;6265918;27;97398;-60
2022/07/04 03:30:23;;;;;;;;;13.00;12.00;;;;;25.17;49.34;98848.19;6264799;27;97813;-60
2022/07/04 03:33:26;;;;;;;;;12.00;11.40;;;;;25.21;49.38;98849.22;6263640;27;97795;-58
2022/07/04 03:36:30;;;;;;;;;12.00;11.00;;;;;25.26;49.48;98853.78;6265519;27;96619;-60
2022/07/04 03:39:34;;;;;;;;;13.60;12.00;;;;;25.29;49.72;98853.13;6264753;27;96626;-57
2022/07/04 03:42:38;;;;;;;;;13.60;13.00;;;;;25.36;49.61;98856.25;6265781;27;97415;-57
2022/07/04 03:45:44;;;;;;;;;11.00;11.00;;;;;25.42;49.73;98855.75;6263815;27;97395;-58
2022/07/04 03:48:47;;;;;;;;;13.00;11.40;;;;;25.49;49.63;98849.78;6263300;27;96968;-58
2022/07/04 03:51:51;;;;;;;;;11.50;11.50;;;;;25.56;49.58;98855.66;6261850;27;97709;-57
2022/07/04 03:54:55;;;;;;;;;13.00;13.00;;;;;25.66;49.45;98857.31;6263898;27;96854;-58
2022/07/04 03:57:59;;;;;;;;;11.60;11.00;;;;;25.75;49.40;98858.19;6254918;27;96977;-56
2022/07/04 04:01:02;;;;;;;;;14.00;13.50;;;;;25.83;49.36;98858.19;6263970;27;96961;-59
2022/07/04 04:07:27;;;;;;;;;12.75;12.00;;;;;26.01;49.16;98852.66;6263425;27;97518;-56
2022/07/04 04:10:32;;;;;;;;;12.00;12.00;;;;;26.10;49.21;98848.78;6263838;27;96803;-57
2022/07/04 04:13:35;;;;;;;;;14.00;12.00;;;;;26.21;49.00;98858.41;6265046;27;97416;-57
2022/07/04 04:16:38;;;;;;;;;13.00;12.00;;;;;26.32;48.94;98863.59;6261773;27;97065;-57
2022/07/04 04:19:42;;;;;;;;;14.00;13.50;;;;;26.40;48.36;98866.38;6264162;27;97850;-57
2022/07/04 04:22:46;;;;;;;;;15.00;14.00;;;;;26.50;48.30;98873.50;6258962;27;97445;-57
2022/07/04 04:25:50;;;;;;;;;12.00;11.33;;;;;26.58;48.27;98870.75;6261129;27;97432;-59
2022/07/04 04:28:58;;;;;;;;;11.60;10.60;;;;;26.65;47.91;98868.28;6259089;27;97018;-57
2022/07/04 04:32:01;;;;;;;;;11.00;10.00;;;;;26.73;48.02;98861.94;6262919;27;97462;-57
2022/07/04 04:35:05;;;;;;;;;12.00;11.75;;;;;26.82;47.59;98858.34;6264702;27;97125;-62
2022/07/04 04:38:08;;;;;;;;;13.00;12.00;;;;;26.88;47.15;98868.91;6263849;27;96664;-56
2022/07/04 04:41:13;;;;;;;;;15.60;14.60;;;;;26.97;47.06;98874.44;6262824;27;96782;-55
2022/07/04 04:44:16;;;;;;;;;14.00;12.20;;;;;27.01;46.28;98862.41;6264105;27;97477;-58
2022/07/04 04:47:20;;;;;;;;;16.00;14.00;;;;;27.06;46.38;98864.97;6264546;27;97562;-57
2022/07/04 04:50:23;;;;;;;;;14.00;13.00;;;;;26.98;46.19;98848.38;6264015;27;97430;-60
2022/07/04 04:53:26;;;;;;;;;14.00;13.00;;;;;27.17;46.09;98870.97;6246088;27;96843;-59
2022/07/04 04:56:31;;;;;;;;;13.40;12.40;;;;;27.20;45.79;98875.84;6264171;27;97430;-57
2022/07/04 04:59:36;;;;;;;;;11.00;10.00;;;;;27.23;45.56;98866.03;6245574;27;97934;-58
2022/07/04 05:02:39;;;;;;;;;10.60;10.60;;;;;27.29;45.95;98857.22;6263859;27;98100;-58
2022/07/04 05:05:43;;;;;;;;;10.60;10.00;;;;;27.34;45.50;98859.81;6260483;27;97349;-56
2022/07/04 05:08:51;;;;;;;;;12.20;11.20;;;;;27.39;45.68;98861.59;6240303;27;98309;-58
2022/07/04 05:11:56;;;;;;;;;11.00;11.00;;;;;27.43;45.55;98855.06;6262160;27;97298;-60
2022/07/04 05:15:00;;;;;;;;;12.60;12.00;;;;;27.57;45.31;98854.84;6261733;27;98190;-58
2022/07/04 05:18:03;;;;;;;;;12.25;12.00;;;;;27.62;45.49;98851.06;6262731;27;97424;-60
2022/07/04 05:21:06;;;;;;;;;12.00;12.00;;;;;27.72;45.30;98854.28;6262842;27;98012;-58
2022/07/04 05:24:11;;;;;;;;;14.20;12.00;;;;;27.81;45.04;98862.53;6262983;27;97601;-60
2022/07/04 05:27:15;;;;;;;;;13.60;13.60;;;;;27.88;44.50;98871.94;6262629;27;97497;-61
2022/07/04 05:30:19;;;;;;;;;14.20;11.20;;;;;27.96;44.18;98881.34;6263086;27;97489;-59
2022/07/04 05:33:22;;;;;;;;;14.00;13.50;;;;;28.08;44.10;98880.59;6263019;27;97073;-58
2022/07/04 05:36:27;;;;;;;;;15.50;15.25;;;;;28.18;44.22;98877.47;6262068;27;96638;-62
2022/07/04 05:39:32;;;;;;;;;14.50;14.50;;;;;28.29;44.03;98882.28;6242837;27;97858;-65
2022/07/04 05:42:36;;;;;;;;;19.00;18.00;;;;;28.38;43.50;98880.25;6262296;27;97551;-62
2022/07/04 05:45:40;;;;;;;;;17.60;16.60;;;;;28.47;43.26;98874.63;6263312;27;98210;-59
2022/07/04 05:48:43;;;;;;;;;13.60;13.40;;;;;28.53;43.27;98880.78;6244778;27;97877;-56
2022/07/04 05:51:46;;;;;;;;;17.00;15.00;;;;;28.64;43.14;98879.19;6263383;27;97014;-59
2022/07/04 05:54:50;;;;;;;;;16.75;16.00;;;;;28.76;43.18;98885.63;6263529;27;97681;-59
2022/07/04 05:57:54;;;;;;;;;11.00;9.60;;;;;28.84;43.16;98881.94;6227798;27;96675;-59
2022/07/04 06:00:58;;;;;;;;;13.00;13.00;;;;;28.94;43.54;98885.44;6263209;27;97679;-62
2022/07/04 06:04:01;;;;;;;;;15.50;15.50;;;;;29.06;43.07;98883.53;6262584;27;97058;-60
2022/07/04 06:07:05;;;;;;;;;18.20;17.60;;;;;29.16;42.26;98883.09;6262979;27;97120;-58
2022/07/04 06:10:09;;;;;;;;;14.40;13.00;;;;;29.25;42.81;98896.88;6262986;27;96552;-60
2022/07/04 06:13:14;;;;;;;;;17.25;16.25;;;;;29.32;42.35;98893.56;6259240;27;96605;-59
2022/07/04 06:16:18;;;;;;;;;16.00;15.00;;;;;29.37;42.41;98888.56;6242024;27;97002;-60
2022/07/04 06:19:21;;;;;;;;;15.75;14.00;;;;;29.40;42.53;98885.13;6242683;27;96712;-59
2022/07/04 06:22:25;;;;;;;;;17.00;16.00;;;;;29.43;42.33;98884.41;6243541;27;98704;-60
2022/07/04 06:25:28;;;;;;;;;22.00;20.00;;;;;29.48;42.28;98886.97;6261016;27;97270;-60
2022/07/04 06:28:33;;;;;;;;;19.00;19.00;;;;;29.56;41.78;98888.03;6262107;27;97404;-60
2022/07/04 06:31:51;;;;;;;;;21.00;19.40;;;;;29.68;41.88;98876.91;6261862;27;96663;-54
2022/07/04 06:38:18;;;;;;;;;17.40;17.00;;;;;29.96;41.97;98875.03;6249393;27;97473;-62
2022/07/04 06:41:21;;;;;;;;;14.00;13.00;;;;;29.97;41.73;98846.09;6259573;27;96677;-56
2022/07/04 06:44:26;;;;;;;;;16.40;16.20;;;;;30.22;40.85;98871.88;6240913;27;98236;-61
2022/07/04 06:47:30;;;;;;;;;19.00;17.80;;;;;30.33;40.60;98869.41;6264348;27;97617;-58
2022/07/04 06:50:35;;;;;;;;;18.20;16.60;;;;;30.42;40.72;98864.50;6269881;27;97512;-60
2022/07/04 06:53:43;;;;;;;;;20.00;19.00;;;;;30.42;40.38;98848.63;6269270;27;97504;-61
2022/07/04 06:56:46;;;;;;;;;17.00;15.80;;;;;30.67;40.06;98859.69;6268957;27;97438;-59
2022/07/04 06:59:51;;;;;;;;;18.50;18.50;;;;;30.78;40.05;98872.75;6249842;27;97345;-57
2022/07/04 07:02:54;;;;;;;;;18.50;18.25;;;;;30.88;40.14;98872.22;6259331;27;96817;-58
2022/07/04 07:05:58;;;;;;;;;20.40;20.00;;;;;30.98;39.62;98874.47;6267191;27;98267;-53
2022/07/04 07:09:03;;;;;;;;;18.80;17.80;;;;;31.08;39.39;98875.16;6269961;27;98117;-63
2022/07/04 07:12:07;;;;;;;;;19.00;18.00;;;;;31.14;39.22;98865.34;6266462;27;97074;-62
2022/07/04 07:15:13;;;;;;;;;18.75;17.00;;;;;31.22;39.12;98864.38;6268505;27;97023;-58
2022/07/04 07:18:17;;;;;;;;;17.00;16.50;;;;;31.32;39.16;98870.25;6269312;27;97198;-57
2022/07/04 07:21:20;;;;;;;;;15.25;14.00;;;;;31.43;38.77;98864.91;6270019;27;97455;-59
2022/07/04 07:24:25;;;;;;;;;16.00;15.50;;;;;31.54;39.16;98860.41;6268182;27;96680;-59
2022/07/04 07:27:29;;;;;;;;;18.00;16.40;;;;;31.67;37.85;98861.16;6267194;27;97538;-60
2022/07/04 07:30:34;;;;;;;;;15.00;15.00;;;;;31.78;37.71;98857.44;6268602;27;97044;-54
2022/07/04 07:33:37;;;;;;;;;19.00;18.40;;;;;31.93;36.88;98853.00;6249290;27;97390;-59
2022/07/04 07:36:40;;;;;;;;;19.00;18.50;;;;;32.06;36.38;98860.06;6269372;27;96534;-57
2022/07/04 07:39:44;;;;;;;;;23.20;22.80;;;;;32.17;36.18;98855.56;6269488;27;96825;-58
2022/07/04 07:42:47;;;;;;;;;18.75;18.00;;;;;32.23;35.86;98854.13;6266628;27;98277;-60
2022/07/04 07:45:52;;;;;;;;;20.50;20.00;;;;;32.28;35.71;98853.03;6267806;27;96717;-61
2022/07/04 07:48:56;;;;;;;;;17.00;16.00;;;;;32.37;35.19;98855.59;6269645;27;97533;-60
2022/07/04 07:52:00;;;;;;;;;16.00;15.60;;;;;32.48;35.09;98857.44;6268177;27;96584;-59
2022/07/04 07:55:03;;;;;;;;;16.80;16.40;;;;;32.57;33.41;98857.19;6268419;27;97660;-60
2022/07/04 07:58:07;;;;;;;;;15.00;15.00;;;;;32.69;33.67;98865.47;6269183;27;96631;-59
2022/07/04 08:01:11;;;;;;;;;16.40;15.00;;;;;32.80;34.11;98851.69;6260148;27;96681;-56
2022/07/04 08:07:36;;;;;;;;;17.50;16.50;;;;;33.03;33.58;98850.56;6250011;27;97712;-57
2022/07/04 08:10:40;;;;;;;;;15.00;14.00;;;;;33.17;33.78;98854.81;6263102;27;97418;-60
2022/07/04 08:13:43;;;;;;;;;13.00;13.00;;;;;33.12;34.01;98832.75;6264243;27;97493;-54
2022/07/04 08:16:48;;;;;;;;;14.00;14.00;;;;;33.41;33.76;98860.84;6259173;27;97635;-56
2022/07/04 08:19:58;;;;;;;;;15.00;14.00;;;;;33.55;32.73;98867.84;6265550;27;97492;-54
2022/07/04 08:23:01;;;;;;;;;14.00;13.00;;;;;33.65;33.21;98854.03;6264892;27;96370;-55
2022/07/04 08:26:05;;;;;;;;;11.25;11.25;;;;;33.76;32.82;98863.44;6264256;27;97280;-59
2022/07/04 08:29:21;;;;;;;;;12.25;12.00;;;;;33.89;30.40;98861.22;6265091;27;98064;-58
2022/07/04 08:32:26;;;;;;;;;14.40;14.00;;;;;33.94;29.41;98853.31;6264994;27;96903;-61
2022/07/04 08:35:30;;;;;;;;;13.20;13.20;;;;;34.05;28.57;98867.44;6264722;27;97089;-63
2022/07/04 08:38:33;;;;;;;;;14.00;13.00;;;;;34.13;29.01;98866.34;6262584;27;96470;-59
2022/07/04 08:41:39;;;;;;;;;13.60;12.60;;;;;34.19;29.24;98855.69;6263165;27;97129;-60
2022/07/04 08:44:48;;;;;;;;;16.00;13.40;;;;;34.31;29.49;98866.63;6262749;27;97030;-59
2022/07/04 08:47:57;;;;;;;;;14.00;13.20;;;;;34.43;29.01;98868.38;6264437;27;96727;-61
2022/07/04 08:51:10;;;;;;;;;15.20;14.40;;;;;34.50;27.75;98857.28;6264727;27;96812;-60
2022/07/04 09:00:58;;;;;;;;;12.00;12.00;;;;;34.76;26.34;98876.81;6260337;27;97888;-59
2022/07/04 09:04:04;;;;;;;;;14.00;13.00;;;;;34.82;28.03;98871.66;6249508;27;96505;-58
2022/07/04 09:07:08;;;;;;;;;15.25;15.00;;;;;34.92;27.71;98871.00;6262944;27;97932;-60
2022/07/04 09:10:12;;;;;;;;;14.00;13.40;;;;;35.00;28.11;98867.06;6262557;27;96624;-57
2022/07/04 09:13:17;;;;;;;;;13.00;12.00;;;;;35.08;27.82;98882.78;6263429;27;96441;-57
2022/07/04 09:16:21;;;;;;;;;14.00;13.00;;;;;35.16;29.39;98876.84;6260702;27;97801;-60
2022/07/04 09:19:26;;;;;;;;;13.00;12.75;;;;;35.26;27.79;98875.38;6263571;27;97637;-57
2022/07/04 09:22:29;;;;;;;;;16.00;16.00;;;;;35.35;28.32;98883.44;6263817;27;96592;-53
2022/07/04 09:25:33;;;;;;;;;15.00;14.00;;;;;35.40;27.85;98863.47;6262400;27;97161;-57
2022/07/04 09:28:37;;;;;;;;;14.00;13.40;;;;;35.47;27.56;98863.56;6263646;27;96704;-59
2022/07/04 09:31:40;;;;;;;;;12.00;12.00;;;;;35.51;28.70;98861.56;6262811;27;97038;-63
2022/07/04 09:34:56;;;;;;;;;14.40;14.40;;;;;35.57;28.61;98868.44;6262976;27;96921;-60
2022/07/04 09:38:01;;;;;;;;;12.40;12.40;;;;;35.69;28.13;98868.16;6262582;27;96827;-57
2022/07/04 09:44:28;;;;;;;;;13.40;11.60;;;;;35.83;25.15;98859.03;6263158;27;96807;-60
2022/07/04 09:47:31;;;;;;;;;13.00;12.00;;;;;35.96;25.65;98857.53;6243417;27;97429;-59
2022/07/04 09:50:36;;;;;;;;;13.00;11.40;;;;;36.05;27.13;98850.38;6261861;27;98000;-58
2022/07/04 09:53:39;;;;;;;;;13.00;13.00;;;;;36.09;28.36;98847.56;6260969;27;96953;-58
2022/07/04 09:56:43;;;;;;;;;14.50;14.00;;;;;36.29;26.41;98853.72;6261261;27;96842;-60
2022/07/04 09:59:47;;;;;;;;;14.40;14.00;;;;;36.44;25.31;98844.97;6261259;27;98650;-60
2022/07/04 10:02:58;;;;;;;;;14.00;14.00;;;;;36.40;26.69;98826.50;6227045;27;98992;-53
2022/07/04 10:06:09;;;;;;;;;15.50;14.50;;;;;36.61;27.48;98839.84;6258923;27;97015;-59
2022/07/04 10:09:16;;;;;;;;;13.00;13.00;;;;;36.72;27.26;98838.69;6262703;27;96600;-57
2022/07/04 10:12:26;;;;;;;;;11.00;10.00;;;;;36.78;27.04;98834.28;6263352;27;97368;-55
2022/07/04 10:15:30;;;;;;;;;12.00;12.00;;;;;36.98;24.32;98842.34;6261117;27;97457;-56
2022/07/04 10:18:35;;;;;;;;;9.60;9.40;;;;;37.08;22.35;98841.59;6262674;27;97017;-58
2022/07/04 10:21:40;;;;;;;;;11.40;11.00;;;;;37.20;24.68;98829.94;6262387;27;97429;-55
2022/07/04 10:24:44;;;;;;;;;10.00;10.00;;;;;37.27;21.80;98825.16;6261145;27;97600;-56
2022/07/04 10:27:50;;;;;;;;;13.60;13.00;;;;;37.35;25.79;98834.38;6252749;27;98615;-56
2022/07/04 10:30:57;;;;;;;;;13.00;12.00;;;;;37.37;24.17;98831.97;6262315;27;97518;-60
2022/07/04 10:34:03;;;;;;;;;13.40;11.00;;;;;37.51;23.22;98822.72;6249305;27;96626;-60
2022/07/04 10:37:07;;;;;;;;;11.60;11.60;;;;;37.62;23.84;98815.94;6237174;28;96534;-62
2022/07/04 10:40:11;;;;;;;;;10.75;10.00;;;;;37.74;22.86;98817.50;6218753;28;98437;-58
2022/07/04 10:44:05;;;;;;;;;15.40;14.40;;;;;37.88;23.79;98811.03;6246330;27;97430;-56
2022/07/04 10:47:23;;;;;;;;;9.00;9.00;;;;;37.92;24.91;98815.47;6251792;27;96759;-61
2022/07/04 10:50:31;;;;;;;;;12.00;12.00;;;;;37.92;24.24;98809.03;6260231;27;97441;-62
2022/07/04 10:54:00;;;;;;;;;13.00;12.25;;;;;37.95;25.09;98811.03;6261219;27;96523;-52
2022/07/04 10:57:11;;;;;;;;;12.00;11.00;;;;;37.92;22.00;98809.84;6262154;27;97432;-59
2022/07/04 11:00:15;;;;;;;;;13.00;13.00;;;;;37.99;24.71;98803.41;6257582;27;96847;-64
2022/07/04 11:03:22;;;;;;;;;12.00;11.00;;;;;38.03;21.71;98809.81;6261099;27;97439;-58
2022/07/04 11:06:56;;;;;;;;;11.00;11.00;;;;;38.02;21.35;98811.06;6261839;27;96375;-61
2022/07/04 11:10:22;;;;;;;;;11.50;11.50;;;;;38.17;23.47;98810.56;6256148;27;97498;-56
2022/07/04 11:13:26;;;;;;;;;10.00;10.00;;;;;38.21;25.11;98810.56;6261830;27;97541;-62
2022/07/04 11:16:52;;;;;;;;;12.00;11.60;;;;;38.25;24.45;98810.56;6261045;27;97225;-62
2022/07/04 11:20:01;;;;;;;;;9.00;9.00;;;;;38.26;24.55;98804.53;6262109;27;97413;-56
2022/07/04 11:23:06;;;;;;;;;8.60;8.40;;;;;38.11;24.19;98794.53;6260638;27;96652;-53
2022/07/04 11:26:11;;;;;;;;;9.00;8.50;;;;;38.17;24.58;98806.16;6260079;27;96856;-58
2022/07/04 11:29:15;;;;;;;;;11.00;10.00;;;;;38.10;21.94;98807.00;6261547;27;97516;-55
2022/07/04 11:32:19;;;;;;;;;11.00;9.60;;;;;38.08;23.54;98801.75;6259413;27;96232;-55
2022/07/04 11:35:22;;;;;;;;;10.00;9.20;;;;;38.08;24.33;98804.56;6245217;27;97233;-54
2022/07/04 11:38:25;;;;;;;;;11.00;11.00;;;;;38.09;24.09;98802.56;6245038;27;96512;-62
2022/07/04 11:45:05;;;;;;;;;11.00;11.00;;;;;38.07;24.76;98776.84;6266038;27;96560;-58
2022/07/04 11:48:09;;;;;;;;;10.00;9.00;;;;;38.01;24.09;98787.72;6265531;27;97495;-59
2022/07/04 11:51:18;;;;;;;;;9.25;9.25;;;;;38.03;24.00;98778.84;6264516;27;96941;-57
2022/07/04 11:54:21;;;;;;;;;10.60;9.60;;;;;38.08;24.28;98789.69;6255041;27;97901;-55
2022/07/04 11:57:37;;;;;;;;;9.00;9.00;;;;;38.06;23.94;98786.50;6243287;27;97166;-59
2022/07/04 12:00:41;;;;;;;;;11.25;11.00;;;;;38.06;24.16;98786.50;6264827;27;96925;-59
2022/07/04 12:03:45;;;;;;;;;10.00;10.00;;;;;38.06;23.78;98778.06;6247159;27;98856;-54
2022/07/04 12:06:49;;;;;;;;;9.40;9.00;;;;;38.10;24.14;98773.22;6261875;27;97160;-61
2022/07/04 12:09:54;;;;;;;;;10.00;10.00;;;;;38.11;24.17;98770.00;6265023;27;97471;-61
2022/07/04 12:13:05;;;;;;;;;8.20;8.20;;;;;38.06;24.25;98772.44;6260396;27;96467;-61
2022/07/04 12:16:12;;;;;;;;;9.80;9.80;;;;;38.05;22.55;98770.81;6252838;27;97406;-60
2022/07/04 12:19:16;;;;;;;;;12.00;11.00;;;;;38.14;21.18;98763.53;6247612;27;96561;-61
2022/07/04 12:22:36;;;;;;;;;11.00;11.00;;;;;38.17;21.50;98763.94;6239562;28;98628;-59
2022/07/04 12:25:40;;;;;;;;;10.20;9.20;;;;;38.19;21.48;98759.50;6239920;28;97468;-63
2022/07/04 12:28:45;;;;;;;;;11.60;11.00;;;;;38.26;21.92;98748.22;6256102;27;96975;-61
2022/07/04 12:31:52;;;;;;;;;9.40;9.00;;;;;38.27;22.88;98757.47;6263356;27;97434;-53
2022/07/04 12:34:56;;;;;;;;;10.00;10.00;;;;;38.11;23.76;98753.09;6263777;27;97406;-58
2022/07/04 12:38:04;;;;;;;;;9.80;9.80;;;;;38.06;22.90;98761.97;6263305;27;97511;-55
2022/07/04 12:41:11;;;;;;;;;10.00;10.00;;;;;38.07;24.37;98751.53;6262466;27;97449;-60
2022/07/04 12:44:22;;;;;;;;;8.25;8.25;;;;;37.87;23.74;98753.97;6263475;27;96994;-54
2022/07/04 12:47:25;;;;;;;;;10.40;10.40;;;;;37.69;23.57;98739.94;6239034;27;97994;-54
2022/07/04 12:50:47;;;;;;;;;11.00;10.00;;;;;37.60;23.66;98739.56;6250423;27;96893;-56
2022/07/04 12:53:52;;;;;;;;;10.60;10.60;;;;;37.68;23.26;98746.75;6263553;27;96325;-57
2022/07/04 12:57:05;;;;;;;;;11.00;10.00;;;;;37.82;23.65;98751.56;6261477;27;97368;-55
2022/07/04 13:00:12;;;;;;;;;9.40;9.00;;;;;37.92;23.52;98752.75;6237850;27;98272;-59
2022/07/04 13:03:36;;;;;;;;;10.20;10.00;;;;;38.09;21.73;98761.13;6251326;27;97835;-58
2022/07/04 13:06:40;;;;;;;;;9.00;9.00;;;;;38.19;22.03;98747.41;6261893;27;97408;-60
2022/07/04 13:09:44;;;;;;;;;9.00;7.60;;;;;38.34;22.76;98743.31;6244172;27;96712;-61
2022/07/04 13:12:49;;;;;;;;;8.00;8.00;;;;;38.49;22.72;98747.69;6263518;27;96378;-54
2022/07/04 13:15:53;;;;;;;;;9.40;9.40;;;;;38.55;23.20;98749.69;6262160;27;98581;-57
2022/07/04 13:18:58;;;;;;;;;8.00;7.00;;;;;38.63;23.03;98758.88;6261721;27;97680;-61
2022/07/04 13:22:01;;;;;;;;;8.60;8.60;;;;;38.63;22.94;98753.25;6263352;27;97268;-61
2022/07/04 13:25:07;;;;;;;;;9.40;9.00;;;;;38.53;22.00;98743.66;6261731;27;97485;-61
2022/07/04 13:28:10;;;;;;;;;10.00;9.00;;;;;38.55;22.77;98746.06;6262144;27;96975;-56
2022/07/04 13:31:15;;;;;;;;;11.00;10.00;;;;;38.48;23.21;98746.91;6264027;27;96722;-56
2022/07/04 13:34:19;;;;;;;;;10.00;9.00;;;;;38.48;21.80;98738.44;6262318;27;99861;-55
2022/07/04 13:37:23;;;;;;;;;9.00;8.50;;;;;38.47;22.82;98736.03;6263381;27;96563;-61
2022/07/04 13:40:26;;;;;;;;;8.00;8.00;;;;;38.33;20.71;98739.72;6262208;27;96732;-57
2022/07/04 13:43:30;;;;;;;;;9.00;8.80;;;;;38.25;22.70;98732.53;6262150;27;96805;-63
2022/07/04 13:46:36;;;;;;;;;10.00;10.00;;;;;38.21;22.80;98734.56;6262798;27;97158;-56
2022/07/04 13:49:39;;;;;;;;;8.67;8.00;;;;;38.20;23.54;98729.31;6261563;27;97441;-55
2022/07/04 13:52:43;;;;;;;;;9.75;9.75;;;;;38.15;23.53;98728.53;6260974;27;97587;-61
2022/07/04 13:55:47;;;;;;;;;9.00;9.00;;;;;38.08;22.57;98722.13;6262599;27;96318;-54
2022/07/04 13:58:52;;;;;;;;;11.50;11.00;;;;;38.06;21.36;98725.38;6260957;27;97284;-61
2022/07/04 14:01:56;;;;;;;;;10.75;10.50;;;;;38.15;22.36;98728.53;6262022;27;96498;-58
2022/07/04 14:05:00;;;;;;;;;9.00;9.00;;;;;38.25;21.59;98723.25;6261092;27;96637;-61
2022/07/04 14:08:04;;;;;;;;;8.00;8.00;;;;;38.34;23.47;98734.88;6262148;27;97402;-58
2022/07/04 14:11:07;;;;;;;;;10.00;9.00;;;;;38.27;23.01;98730.06;6246256;27;97435;-57
2022/07/04 14:14:11;;;;;;;;;9.60;9.60;;;;;38.18;23.06;98724.09;6262330;27;96705;-55
2022/07/04 14:17:15;;;;;;;;;8.00;8.00;;;;;38.11;20.73;98724.16;6260804;27;97153;-56
2022/07/04 14:20:37;;;;;;;;;8.00;8.00;;;;;38.03;20.62;98729.00;6262076;27;97991;-59
2022/07/04 14:23:41;;;;;;;;;9.00;8.33;;;;;37.97;20.73;98729.81;6257919;27;97477;-60
2022/07/04 14:26:44;;;;;;;;;8.00;8.00;;;;;37.90;20.96;98718.56;6261068;27;97474;-57
2022/07/04 14:29:47;;;;;;;;;8.00;8.00;;;;;37.82;21.23;98737.50;6261125;27;97569;-59
2022/07/04 14:32:52;;;;;;;;;9.00;9.00;;;;;37.73;21.65;98726.66;6259558;27;97459;-58
2022/07/04 14:35:56;;;;;;;;;10.00;10.00;;;;;37.60;23.97;98728.31;6261334;27;97493;-59
2022/07/04 14:39:01;;;;;;;;;10.00;9.00;;;;;37.40;24.00;98726.31;6260305;27;96679;-56